createdAt,value
2023-03-11T00:00:47.153Z,99438.88
2023-03-11T00:03:17.265Z,99445.94
2023-03-11T00:05:46.344Z,99436.59
2023-03-11T00:08:17.204Z,99438.09
2023-03-11T00:10:46.191Z,99440.50
2023-03-11T00:13:15.409Z,99436.59
2023-03-11T00:15:45.325Z,99425.91
2023-03-11T00:18:12.283Z,99425.78
2023-03-11T00:20:42.494Z,99422.13
2023-03-11T00:23:11.154Z,99422.44
2023-03-11T00:25:39.549Z,99417.00
2023-03-11T00:28:10.693Z,99426.28
2023-03-11T00:30:39.192Z,99422.34
2023-03-11T00:33:07.299Z,99418.38
2023-03-11T00:35:35.679Z,99416.25
2023-03-11T00:38:06.724Z,99422.56
2023-03-11T00:40:35.187Z,99417.91
2023-03-11T00:43:03.250Z,99418.81
2023-03-11T00:45:31.150Z,99417.31
2023-03-11T00:47:58.694Z,99420.66
2023-03-11T00:50:31.783Z,99426.94
2023-03-11T00:52:59.808Z,99420.59
2023-03-11T00:55:30.000Z,99421.38
2023-03-11T00:58:01.445Z,99421.00
2023-03-11T01:00:35.289Z,99418.75
2023-03-11T01:03:03.730Z,99423.94
2023-03-11T01:05:33.187Z,99430.53
2023-03-11T01:08:01.785Z,99431.78
2023-03-11T01:10:30.563Z,99420.59
2023-03-11T01:12:57.832Z,99420.16
2023-03-11T01:15:32.047Z,99424.69
2023-03-11T01:17:59.384Z,99407.66
2023-03-11T01:20:26.517Z,99416.72
2023-03-11T01:22:53.556Z,99420.69
2023-03-11T01:25:23.349Z,99422.28
2023-03-11T01:27:50.951Z,99422.72
2023-03-11T01:30:21.502Z,99424.06
2023-03-11T01:32:48.761Z,99416.84
2023-03-11T01:35:18.688Z,99414.66
2023-03-11T01:37:47.493Z,99416.56
2023-03-11T01:40:21.675Z,99414.50
2023-03-11T01:42:48.658Z,99417.09
2023-03-11T01:45:49.753Z,99415.78
2023-03-11T01:48:19.299Z,99413.53
2023-03-11T01:50:50.554Z,99419.13
2023-03-11T01:53:18.146Z,99408.63
2023-03-11T01:55:47.051Z,99415.44
2023-03-11T01:58:42.231Z,99407.00
2023-03-11T02:01:09.170Z,99406.66
2023-03-11T02:03:41.325Z,99412.31
2023-03-11T02:06:12.377Z,99419.09
2023-03-11T02:08:41.038Z,99405.03
2023-03-11T02:11:12.662Z,99402.09
2023-03-11T02:13:41.808Z,99412.81
2023-03-11T02:16:09.098Z,99419.38
2023-03-11T02:18:37.308Z,99404.59
2023-03-11T02:21:07.434Z,99414.34
2023-03-11T02:23:46.406Z,99414.03
2023-03-11T02:26:25.939Z,99408.38
2023-03-11T02:28:54.659Z,99404.91
2023-03-11T02:31:23.086Z,99403.41
2023-03-11T02:33:53.222Z,99408.06
2023-03-11T02:36:32.993Z,99405.31
2023-03-11T02:39:00.920Z,99408.91
2023-03-11T02:41:28.568Z,99412.50
2023-03-11T02:43:56.290Z,99419.72
2023-03-11T02:46:24.376Z,99416.84
2023-03-11T02:48:53.514Z,99412.78
2023-03-11T02:51:20.563Z,99410.84
2023-03-11T02:53:53.205Z,99402.59
2023-03-11T02:56:20.486Z,99404.63
2023-03-11T02:58:48.358Z,99407.38
2023-03-11T03:01:15.898Z,99410.59
2023-03-11T03:03:44.815Z,99405.84
2023-03-11T03:06:12.663Z,99404.06
2023-03-11T03:08:39.716Z,99402.47
2023-03-11T03:11:06.757Z,99409.25
2023-03-11T03:13:33.750Z,99406.91
2023-03-11T03:16:01.155Z,99401.31
2023-03-11T03:18:28.284Z,99414.31
2023-03-11T03:20:55.337Z,99413.63
2023-03-11T03:23:23.166Z,99407.53
2023-03-11T03:25:50.278Z,99412.03
2023-03-11T03:28:17.407Z,99407.31
2023-03-11T03:30:46.055Z,99401.25
2023-03-11T03:33:14.202Z,99413.03
2023-03-11T03:35:43.562Z,99408.25
2023-03-11T03:38:16.986Z,99414.69
2023-03-11T03:40:48.042Z,99409.06
2023-03-11T03:43:17.925Z,99409.41
2023-03-11T03:45:46.366Z,99404.47
2023-03-11T03:48:13.370Z,99405.94
2023-03-11T03:50:44.295Z,99405.00
2023-03-11T03:53:14.890Z,99405.88
2023-03-11T03:55:42.498Z,99406.94
2023-03-11T03:58:10.478Z,99391.31
2023-03-11T04:00:37.910Z,99400.97
2023-03-11T04:03:05.626Z,99400.22
2023-03-11T04:05:40.766Z,99401.75
2023-03-11T04:08:07.872Z,99392.22
2023-03-11T04:10:35.518Z,99397.53
2023-03-11T04:13:03.120Z,99393.97
2023-03-11T04:15:30.291Z,99391.94
2023-03-11T04:17:57.218Z,99389.81
2023-03-11T04:20:24.342Z,99386.38
2023-03-11T04:22:52.763Z,99392.13
2023-03-11T04:25:22.936Z,99374.97
2023-03-11T04:27:52.390Z,99372.88
2023-03-11T04:30:20.655Z,99370.53
2023-03-11T04:32:49.879Z,99357.53
2023-03-11T04:35:17.852Z,99359.25
2023-03-11T04:37:45.700Z,99358.50
2023-03-11T04:40:12.898Z,99350.56
2023-03-11T04:42:40.365Z,99353.59
2023-03-11T04:45:08.413Z,99351.03
2023-03-11T04:47:35.983Z,99356.50
2023-03-11T04:50:04.933Z,99355.75
2023-03-11T04:52:32.176Z,99351.09
2023-03-11T04:54:59.237Z,99348.06
2023-03-11T04:57:26.781Z,99350.84
2023-03-11T04:59:53.809Z,99350.13
2023-03-11T05:02:20.866Z,99350.28
2023-03-11T05:04:53.976Z,99349.03
2023-03-11T05:07:21.332Z,99346.19
2023-03-11T05:09:48.562Z,99343.44
2023-03-11T05:12:15.832Z,99334.78
2023-03-11T05:14:47.419Z,99339.78
2023-03-11T05:17:15.045Z,99337.03
2023-03-11T05:19:42.259Z,99335.81
2023-03-11T05:22:17.134Z,99330.50
2023-03-11T05:24:44.715Z,99338.66
2023-03-11T05:27:11.639Z,99329.41
2023-03-11T05:29:39.840Z,99339.13
2023-03-11T05:32:10.032Z,99340.31
2023-03-11T05:34:37.702Z,99334.94
2023-03-11T05:37:05.139Z,99330.84
2023-03-11T05:39:32.529Z,99330.50
2023-03-11T05:42:00.002Z,99346.06
2023-03-11T05:44:27.965Z,99337.03
2023-03-11T05:46:56.431Z,99340.47
2023-03-11T05:49:23.790Z,99334.81
2023-03-11T05:51:56.129Z,99336.78
2023-03-11T05:54:26.162Z,99341.53
2023-03-11T05:56:54.391Z,99339.63
2023-03-11T05:59:21.380Z,99329.69
2023-03-11T06:01:55.299Z,99331.41
2023-03-11T06:04:23.565Z,99321.94
2023-03-11T06:06:50.682Z,99328.84
2023-03-11T06:09:20.248Z,99333.66
2023-03-11T06:11:47.710Z,99332.88
2023-03-11T06:14:16.603Z,99333.78
2023-03-11T06:16:46.185Z,99334.63
2023-03-11T06:19:13.392Z,99333.91
2023-03-11T06:21:44.975Z,99327.72
2023-03-11T06:24:12.069Z,99320.66
2023-03-11T06:26:39.073Z,99313.69
2023-03-11T06:29:11.694Z,99310.03
2023-03-11T06:31:40.318Z,99324.44
2023-03-11T06:34:11.829Z,99318.81
2023-03-11T06:36:39.137Z,99307.97
2023-03-11T06:39:06.120Z,99317.38
2023-03-11T06:41:35.263Z,99313.78
2023-03-11T06:44:05.063Z,99296.09
2023-03-11T06:46:32.979Z,99310.47
2023-03-11T06:49:00.030Z,99312.47
2023-03-11T06:51:28.772Z,99310.19
2023-03-11T06:53:55.885Z,99314.69
2023-03-11T06:56:24.218Z,99312.75
2023-03-11T06:58:59.271Z,99311.91
2023-03-11T07:01:30.754Z,99302.16
2023-03-11T07:03:59.632Z,99303.28
2023-03-11T07:06:28.884Z,99300.50
2023-03-11T07:09:04.031Z,99296.19
2023-03-11T07:11:32.362Z,99291.44
2023-03-11T07:14:11.966Z,99294.81
2023-03-11T07:16:43.506Z,99291.22
2023-03-11T07:19:17.807Z,99295.78
2023-03-11T07:21:44.847Z,99284.38
2023-03-11T07:27:01.180Z,99278.84
2023-03-11T07:29:28.371Z,99281.56
2023-03-11T07:31:55.331Z,99269.09
2023-03-11T07:34:22.290Z,99267.00
2023-03-11T07:36:56.308Z,99263.69
2023-03-11T07:39:25.774Z,99260.53
2023-03-11T07:41:52.713Z,99238.91
2023-03-11T07:44:19.768Z,99235.81
2023-03-11T07:46:49.989Z,99226.78
2023-03-11T07:49:20.149Z,99227.03
2023-03-11T07:51:49.773Z,99217.19
2023-03-11T07:54:18.358Z,99221.16
2023-03-11T07:56:55.866Z,99204.13
2023-03-11T08:02:15.424Z,99212.41
2023-03-11T08:04:45.053Z,99210.00
2023-03-11T08:07:13.065Z,99204.53
2023-03-11T08:09:40.048Z,99216.81
2023-03-11T08:12:09.529Z,99198.59
2023-03-11T08:14:38.586Z,99187.47
2023-03-11T08:17:07.898Z,99188.69
2023-03-11T08:19:34.867Z,99181.94
2023-03-11T08:22:09.871Z,99181.34
2023-03-11T08:24:37.133Z,99172.41
2023-03-11T08:27:09.284Z,99168.66
2023-03-11T08:29:38.307Z,99170.94
2023-03-11T08:32:05.584Z,99169.50
2023-03-11T08:34:35.774Z,99171.88
2023-03-11T08:37:07.455Z,99170.44
2023-03-11T08:39:34.546Z,99185.66
2023-03-11T08:42:04.999Z,99191.16
2023-03-11T08:44:34.426Z,99190.59
2023-03-11T08:47:03.500Z,99181.59
2023-03-11T08:49:35.459Z,99185.88
2023-03-11T08:52:05.986Z,99181.09
2023-03-11T08:54:39.136Z,99165.88
2023-03-11T08:57:06.182Z,99167.03
2023-03-11T08:59:38.959Z,99154.63
2023-03-11T09:02:10.165Z,99148.31
2023-03-11T09:04:40.010Z,99149.19
2023-03-11T09:07:09.318Z,99155.28
2023-03-11T09:09:49.253Z,99151.50
2023-03-11T09:15:01.861Z,99134.72
2023-03-11T09:20:19.210Z,99146.44
2023-03-11T09:22:49.318Z,99140.69
2023-03-11T09:25:18.808Z,99117.81
2023-03-11T09:27:45.758Z,99132.94
2023-03-11T09:30:32.646Z,99135.09
2023-03-11T09:33:25.056Z,99123.56
2023-03-11T09:35:54.925Z,99127.41
2023-03-11T09:38:22.039Z,99123.63
2023-03-11T09:40:58.860Z,99102.53
2023-03-11T09:43:25.605Z,99134.31
2023-03-11T09:46:21.273Z,99127.50
2023-03-11T09:48:59.685Z,99122.13
2023-03-11T09:51:31.426Z,99101.72
2023-03-11T09:54:04.440Z,99096.44
2023-03-11T09:56:34.736Z,99094.09
2023-03-11T09:59:07.171Z,99084.34
2023-03-11T10:01:37.885Z,99074.63
2023-03-11T10:04:13.318Z,99075.41
2023-03-11T10:06:42.970Z,99072.72
2023-03-11T10:09:13.040Z,99075.22
2023-03-11T10:11:47.145Z,99061.53
2023-03-11T10:14:29.017Z,99052.09
2023-03-11T10:17:08.182Z,99044.72
2023-03-11T10:19:53.337Z,99036.72
2023-03-11T10:22:20.240Z,99027.13
2023-03-11T10:25:14.702Z,99022.06
2023-03-11T10:27:49.416Z,99017.00
2023-03-11T10:30:34.041Z,99010.22
2023-03-11T10:33:19.189Z,99006.00
2023-03-11T10:35:51.788Z,98996.41
2023-03-11T10:38:23.105Z,98997.72
2023-03-11T10:40:55.330Z,99001.00
2023-03-11T10:43:29.268Z,98994.47
2023-03-11T10:45:56.233Z,98990.47
2023-03-11T10:48:25.849Z,98989.63
2023-03-11T10:51:18.304Z,98983.59
2023-03-11T10:53:49.341Z,98976.28
2023-03-11T10:56:32.869Z,98980.00
2023-03-11T10:59:01.022Z,98960.59
2023-03-11T11:01:31.966Z,98966.78
2023-03-11T11:04:01.862Z,98963.25
2023-03-11T11:06:29.001Z,98953.78
2023-03-11T11:09:17.516Z,98963.19
2023-03-11T11:12:05.677Z,98950.91
2023-03-11T11:14:50.220Z,98947.66
2023-03-11T11:17:26.547Z,98940.19
2023-03-11T11:19:54.615Z,98934.41
2023-03-11T11:22:23.376Z,98934.19
2023-03-11T11:24:53.423Z,98931.19
2023-03-11T11:27:29.370Z,98916.28
2023-03-11T11:30:08.918Z,98914.78
2023-03-11T11:32:37.183Z,98927.88
2023-03-11T11:35:07.376Z,98910.50
2023-03-11T11:37:37.873Z,98906.31
2023-03-11T11:40:16.709Z,98908.13
2023-03-11T11:42:49.041Z,98898.31
2023-03-11T11:45:29.442Z,98899.84
2023-03-11T11:48:01.169Z,98899.66
2023-03-11T11:50:34.236Z,98897.38
2023-03-11T11:53:13.016Z,98898.13
2023-03-11T11:55:49.041Z,98892.47
2023-03-11T11:58:16.363Z,98902.56
2023-03-11T12:01:00.314Z,98894.44
2023-03-11T12:03:45.740Z,98895.31
2023-03-11T12:06:27.747Z,98893.81
2023-03-11T12:09:14.851Z,98886.22
2023-03-11T12:11:56.278Z,98898.59
2023-03-11T12:15:04.008Z,98888.25
2023-03-11T12:17:32.964Z,98896.84
2023-03-11T12:20:05.385Z,98880.72
2023-03-11T12:22:54.103Z,98878.81
2023-03-11T12:25:41.518Z,98868.06
2023-03-11T12:28:20.392Z,98871.72
2023-03-11T12:31:10.361Z,98869.09
2023-03-11T12:33:40.224Z,98879.81
2023-03-11T12:36:20.757Z,98863.50
2023-03-11T12:38:49.250Z,98869.56
2023-03-11T12:41:16.285Z,98885.00
2023-03-11T12:43:43.296Z,98870.47
2023-03-11T12:46:18.091Z,98858.91
2023-03-11T12:48:52.689Z,98868.44
2023-03-11T12:51:34.511Z,98847.66
2023-03-11T12:54:22.268Z,98862.50
2023-03-11T12:57:15.304Z,98859.16
2023-03-11T13:00:01.155Z,98863.59
2023-03-11T13:03:02.852Z,98853.78
2023-03-11T13:05:47.956Z,98844.03
2023-03-11T13:08:17.864Z,98834.13
2023-03-11T13:10:50.290Z,98830.09
2023-03-11T13:13:38.264Z,98838.81
2023-03-11T13:16:14.261Z,98824.44
2023-03-11T13:18:42.955Z,98815.34
2023-03-11T13:21:38.194Z,98811.91
2023-03-11T13:24:25.950Z,98808.50
2023-03-11T13:26:59.444Z,98795.25
2023-03-11T13:29:35.572Z,98798.63
2023-03-11T13:32:43.218Z,98793.06
2023-03-11T13:35:28.866Z,98784.81
2023-03-11T13:38:21.157Z,98782.97
2023-03-11T13:40:48.317Z,98781.69
2023-03-11T13:43:24.858Z,98766.66
2023-03-11T13:46:05.666Z,98755.16
2023-03-11T13:48:42.129Z,98753.09
2023-03-11T13:51:25.715Z,98756.81
2023-03-11T13:54:13.947Z,98758.50
2023-03-11T13:56:51.397Z,98746.91
2023-03-11T13:59:30.464Z,98763.00
2023-03-11T14:02:00.822Z,98752.03
2023-03-11T14:04:38.541Z,98743.03
2023-03-11T14:07:24.262Z,98738.66
2023-03-11T14:09:51.540Z,98740.41
2023-03-11T14:12:24.089Z,98740.50
2023-03-11T14:15:09.457Z,98739.50
2023-03-11T14:17:36.550Z,98728.97
2023-03-11T14:20:16.634Z,98662.28
2023-03-11T14:22:49.722Z,98737.63
2023-03-11T14:25:41.124Z,98719.72
2023-03-11T14:28:20.323Z,98716.50
2023-03-11T14:31:02.286Z,98712.19
2023-03-11T14:33:29.923Z,98706.97
2023-03-11T14:36:04.745Z,98697.84
2023-03-11T14:38:33.316Z,98702.78
2023-03-11T14:41:05.335Z,98707.13
2023-03-11T14:43:44.569Z,98686.69
2023-03-11T14:46:19.237Z,98701.66
2023-03-11T14:48:47.235Z,98696.00
2023-03-11T14:51:25.185Z,98685.34
2023-03-11T14:54:07.034Z,98672.44
2023-03-11T14:56:40.446Z,98674.91
2023-03-11T14:59:32.399Z,98694.38
2023-03-11T15:02:24.075Z,98672.53
2023-03-11T15:04:52.262Z,98677.28
2023-03-11T15:07:20.410Z,98666.34
2023-03-11T15:09:48.474Z,98662.44
2023-03-11T15:12:50.810Z,98680.19
2023-03-11T15:15:35.385Z,98676.66
2023-03-11T15:18:05.447Z,98673.94
2023-03-11T15:20:40.713Z,98674.59
2023-03-11T15:23:20.930Z,98659.81
2023-03-11T15:25:50.276Z,98681.59
2023-03-11T15:28:30.258Z,98668.56
2023-03-11T15:31:15.925Z,98660.56
2023-03-11T15:33:44.102Z,98658.75
2023-03-11T15:36:32.729Z,98652.00
2023-03-11T15:39:21.249Z,98640.94
2023-03-11T15:42:07.621Z,98639.66
2023-03-11T15:44:58.176Z,98636.63
2023-03-11T15:47:25.579Z,98632.72
2023-03-11T15:49:54.949Z,98624.19
2023-03-11T15:52:22.081Z,98628.22
2023-03-11T15:54:55.793Z,98619.53
2023-03-11T15:57:31.360Z,98608.91
2023-03-11T16:00:00.394Z,98622.28
2023-03-11T16:02:32.620Z,98612.72
2023-03-11T16:05:01.104Z,98610.06
2023-03-11T16:07:39.265Z,98612.00
2023-03-11T16:10:08.624Z,98598.47
2023-03-11T16:12:35.806Z,98601.97
2023-03-11T16:15:04.272Z,98598.06
2023-03-11T16:17:48.588Z,98560.19
2023-03-11T16:20:16.412Z,98596.53
2023-03-11T16:22:45.815Z,98581.66
2023-03-11T16:25:44.426Z,98568.72
2023-03-11T16:28:16.316Z,98572.13
2023-03-11T16:30:48.585Z,98561.34
2023-03-11T16:33:15.548Z,98562.25
2023-03-11T16:35:45.643Z,98546.66
2023-03-11T16:38:19.509Z,98549.22
2023-03-11T16:40:59.732Z,98541.03
2023-03-11T16:43:29.057Z,98542.28
2023-03-11T16:45:59.139Z,98532.09
2023-03-11T16:48:28.419Z,98534.25
2023-03-11T16:50:55.378Z,98523.16
2023-03-11T16:53:22.373Z,98520.38
2023-03-11T16:55:49.346Z,98522.75
2023-03-11T16:58:16.633Z,98507.06
2023-03-11T17:00:43.834Z,98505.09
2023-03-11T17:03:12.782Z,98505.00
2023-03-11T17:05:39.944Z,98502.22
2023-03-11T17:08:07.034Z,98486.41
2023-03-11T17:10:38.326Z,98493.19
2023-03-11T17:13:06.445Z,98499.75
2023-03-11T17:15:35.371Z,98492.06
2023-03-11T17:18:02.557Z,98489.28
2023-03-11T17:20:29.475Z,98486.00
2023-03-11T17:22:56.556Z,98484.16
2023-03-11T17:25:23.558Z,98475.81
2023-03-11T17:27:50.508Z,98469.09
2023-03-11T17:30:35.565Z,98458.88
2023-03-11T17:33:03.374Z,98465.50
2023-03-11T17:35:30.394Z,98450.22
2023-03-11T17:37:57.276Z,98437.47
2023-03-11T17:40:24.648Z,98443.44
2023-03-11T17:42:51.604Z,98430.06
2023-03-11T17:45:18.628Z,98418.88
2023-03-11T17:47:45.572Z,98402.66
2023-03-11T17:50:13.218Z,98390.84
2023-03-11T17:52:40.191Z,98397.56
2023-03-11T17:55:07.750Z,98386.13
2023-03-11T17:57:42.923Z,98381.63
2023-03-11T18:00:14.803Z,98376.38
2023-03-11T18:02:42.512Z,98388.25
2023-03-11T18:05:09.719Z,98377.28
2023-03-11T18:07:41.049Z,98377.78
2023-03-11T18:10:09.092Z,98375.09
2023-03-11T18:12:36.308Z,98373.41
2023-03-11T18:15:06.273Z,98362.97
2023-03-11T18:17:35.229Z,98375.81
2023-03-11T18:20:02.452Z,98369.28
2023-03-11T18:22:30.066Z,98366.06
2023-03-11T18:25:04.383Z,98350.97
2023-03-11T18:27:31.516Z,98356.56
2023-03-11T18:30:38.379Z,98353.22
2023-03-11T18:33:08.129Z,98351.00
2023-03-11T18:35:35.279Z,98362.00
2023-03-11T18:38:02.270Z,98353.78
2023-03-11T18:40:29.186Z,98353.13
2023-03-11T18:42:58.432Z,98339.22
2023-03-11T18:45:25.364Z,98344.34
2023-03-11T18:47:53.189Z,98333.84
2023-03-11T18:50:20.758Z,98321.13
2023-03-11T18:52:55.516Z,98316.56
2023-03-11T18:55:24.846Z,98295.03
2023-03-11T18:57:53.282Z,98299.84
2023-03-11T19:00:23.683Z,98298.91
2023-03-11T19:02:52.507Z,98290.97
2023-03-11T19:05:20.121Z,98291.09
2023-03-11T19:07:49.952Z,98270.75
2023-03-11T19:10:20.153Z,98282.13
2023-03-11T19:12:49.508Z,98273.00
2023-03-11T19:15:18.650Z,98265.16
2023-03-11T19:17:54.513Z,98269.50
2023-03-11T19:20:31.904Z,98256.66
2023-03-11T19:22:58.928Z,98260.38
2023-03-11T19:25:28.066Z,98227.78
2023-03-11T19:27:55.542Z,98235.38
2023-03-11T19:30:28.561Z,98227.78
2023-03-11T19:32:55.787Z,98241.56
2023-03-11T19:35:24.105Z,98234.44
2023-03-11T19:37:57.109Z,98217.84
2023-03-11T19:40:24.501Z,98200.78
2023-03-11T19:42:51.951Z,98198.19
2023-03-11T19:45:19.613Z,98195.72
2023-03-11T19:47:52.574Z,98186.53
2023-03-11T19:50:20.061Z,98186.28
2023-03-11T19:52:50.020Z,98182.19
2023-03-11T19:55:17.205Z,98177.38
2023-03-11T19:57:44.288Z,98170.84
2023-03-11T20:00:12.516Z,98167.31
2023-03-11T20:02:39.870Z,98162.63
2023-03-11T20:05:07.689Z,98170.38
2023-03-11T20:07:34.775Z,98158.28
2023-03-11T20:10:01.822Z,98160.75
2023-03-11T20:12:30.093Z,98145.88
2023-03-11T20:14:57.175Z,98143.69
2023-03-11T20:17:24.276Z,98137.72
2023-03-11T20:19:51.488Z,98134.09
2023-03-11T20:22:20.129Z,98117.28
2023-03-11T20:24:47.201Z,98117.16
2023-03-11T20:27:15.252Z,98121.50
2023-03-11T20:29:42.330Z,98100.44
2023-03-11T20:32:09.395Z,98098.78
2023-03-11T20:34:39.389Z,98073.88
2023-03-11T20:37:07.015Z,98090.69
2023-03-11T20:39:35.527Z,98088.44
2023-03-11T20:42:03.380Z,98077.47
2023-03-11T20:44:31.572Z,98076.97
2023-03-11T20:46:58.886Z,98060.56
2023-03-11T20:49:26.859Z,98051.25
2023-03-11T20:51:54.443Z,98040.47
2023-03-11T20:54:22.360Z,98043.16
2023-03-11T20:56:51.042Z,98035.69
2023-03-11T20:59:18.996Z,98019.28
2023-03-11T21:01:46.686Z,98011.78
2023-03-11T21:04:16.409Z,98016.75
2023-03-11T21:06:44.277Z,98011.19
2023-03-11T21:09:14.767Z,98016.13
2023-03-11T21:11:43.137Z,98000.69
2023-03-11T21:14:11.769Z,97985.84
2023-03-11T21:16:39.531Z,97986.00
2023-03-11T21:19:08.962Z,97970.81
2023-03-11T21:21:36.973Z,97963.66
2023-03-11T21:24:04.866Z,97962.31
2023-03-11T21:26:32.930Z,97948.50
2023-03-11T21:29:01.014Z,97952.84
2023-03-11T21:31:29.627Z,97947.44
2023-03-11T21:34:02.706Z,97950.84
2023-03-11T21:36:30.474Z,97942.03
2023-03-11T21:38:58.390Z,97933.50
2023-03-11T21:41:27.820Z,97921.44
2023-03-11T21:43:59.782Z,97924.88
2023-03-11T21:46:31.588Z,97905.06
2023-03-11T21:48:59.794Z,97906.72
2023-03-11T21:51:27.051Z,97888.16
2023-03-11T21:53:54.292Z,97900.59
2023-03-11T21:56:22.024Z,97891.53
2023-03-11T21:58:50.134Z,97889.22
2023-03-11T22:01:17.895Z,97876.22
2023-03-11T22:03:45.584Z,97864.00
2023-03-11T22:06:13.557Z,97867.94
2023-03-11T22:08:42.832Z,97863.72
2023-03-11T22:11:17.920Z,97857.78
2023-03-11T22:13:48.119Z,97846.41
2023-03-11T22:16:22.807Z,97855.59
2023-03-11T22:18:53.946Z,97859.69
2023-03-11T22:21:21.174Z,97831.19
2023-03-11T22:23:48.472Z,97855.31
2023-03-11T22:26:16.254Z,97813.16
2023-03-11T22:28:43.777Z,97830.66
2023-03-11T22:31:13.683Z,97824.69
2023-03-11T22:33:41.066Z,97823.31
2023-03-11T22:36:09.624Z,97822.09
2023-03-11T22:38:39.422Z,97815.69
2023-03-11T22:41:08.483Z,97818.00
2023-03-11T22:43:36.132Z,97804.81
2023-03-11T22:46:04.808Z,97808.38
2023-03-11T22:48:35.862Z,97807.13
2023-03-11T22:51:05.708Z,97791.25
2023-03-11T22:53:32.827Z,97786.59
2023-03-11T22:56:00.925Z,97779.84
2023-03-11T22:58:27.920Z,97777.38
2023-03-11T23:00:54.884Z,97772.50
2023-03-11T23:03:21.808Z,97762.19
2023-03-11T23:05:48.798Z,97765.56
2023-03-11T23:08:16.912Z,97756.47
2023-03-11T23:10:46.721Z,97751.00
2023-03-11T23:13:14.206Z,97742.34
2023-03-11T23:15:42.573Z,97735.53
2023-03-11T23:18:14.295Z,97722.88
2023-03-11T23:20:42.436Z,97734.59
2023-03-11T23:23:10.024Z,97726.25
2023-03-11T23:25:36.965Z,97685.53
2023-03-11T23:28:05.838Z,97702.19
2023-03-11T23:30:33.029Z,97699.59
2023-03-11T23:33:02.994Z,97671.53
2023-03-11T23:35:31.221Z,97689.84
2023-03-11T23:37:58.471Z,97675.66
2023-03-11T23:40:25.643Z,97674.06
2023-03-11T23:42:53.675Z,97673.47
2023-03-11T23:45:20.700Z,97675.91
2023-03-11T23:47:47.827Z,97671.72
2023-03-11T23:50:15.746Z,97654.66
2023-03-11T23:52:42.768Z,97656.31
2023-03-11T23:55:10.084Z,97638.59
2023-03-11T23:57:37.996Z,97647.81
